Time;durP1;ratioP1;P1;durP2;ratioP2;P2;SDS_P1;SDS_P2;PMS_P1;PMS_P2;Temp;Humidity;BMP_temperature;BMP_pressure;BME280_temperature;BME280_humidity;BME280_pressure;Samples;Min_cycle;Max_cycle;Signal;HPM_P1;HPM_P2
2022/10/05 00:00:19;;;;;;;5.03;3.33;;;;;;;9.78;100.00;95340.56;5091833;28;20208;-60
2022/10/05 00:02:47;;;;;;;4.07;3.57;;;;;;;9.52;100.00;95342.41;5091842;28;20189;-60
2022/10/05 00:05:21;;;;;;;3.77;3.17;;;;;;;9.66;100.00;95327.00;5073677;28;20208;-62
2022/10/05 00:07:47;;;;;;;4.73;3.00;;;;;;;9.58;100.00;95343.69;5073387;28;20625;-61
2022/10/05 00:10:17;;;;;;;4.97;3.07;;;;;;;9.42;100.00;95333.78;5073505;28;20208;-59
2022/10/05 00:12:46;;;;;;;5.97;3.03;;;;;;;9.47;100.00;95336.84;5091585;28;20215;-59
2022/10/05 00:15:14;;;;;;;4.73;4.03;;;;;;;9.44;100.00;95336.22;5091571;28;20204;-59
2022/10/05 00:17:41;;;;;;;4.60;3.63;;;;;;;9.50;100.00;95335.78;5091523;28;20211;-59
2022/10/05 00:20:39;;;;;;;4.47;3.80;;;;;;;9.52;100.00;95334.78;5091354;28;20204;-60
2022/10/05 00:23:13;;;;;;;3.53;3.10;;;;;;;9.57;100.00;95334.47;5036596;28;20188;-59
2022/10/05 00:25:38;;;;;;;4.23;3.83;;;;;;;9.70;100.00;95340.28;5073217;28;20589;-59
2022/10/05 00:28:16;;;;;;;5.53;3.60;;;;;;;9.66;100.00;95329.53;5091289;28;20208;-60
2022/10/05 00:30:41;;;;;;;5.67;3.37;;;;;;;9.61;100.00;95329.06;5091275;28;20285;-59
2022/10/05 00:33:07;;;;;;;6.10;3.73;;;;;;;9.53;100.00;95331.34;5091382;28;20669;-60
2022/10/05 00:35:34;;;;;;;5.60;3.50;;;;;;;9.73;100.00;95338.38;5091100;28;20766;-60
2022/10/05 00:38:00;;;;;;;3.40;3.10;;;;;;;9.56;100.00;95335.38;5091647;28;20241;-62
2022/10/05 00:40:39;;;;;;;4.20;3.10;;;;;;;9.61;100.00;95323.19;5091255;28;20215;-59
2022/10/05 00:43:29;;;;;;;3.53;3.23;;;;;;;9.56;100.00;95335.38;5091161;28;20188;-61
2022/10/05 00:46:06;;;;;;;4.40;3.70;;;;;;;9.55;100.00;95334.56;5091187;28;20180;-61
2022/10/05 00:48:54;;;;;;;4.53;3.47;;;;;;;9.54;100.00;95322.78;5091141;28;20736;-62
2022/10/05 00:51:19;;;;;;;2.87;2.57;;;;;;;9.63;100.00;95326.41;5072968;28;20203;-62
2022/10/05 00:54:08;;;;;;;3.70;3.40;;;;;;;9.68;100.00;95332.78;5091100;28;20212;-61
2022/10/05 00:56:42;;;;;;;5.37;3.00;;;;;;;9.70;100.00;95336.03;5091415;28;20180;-60
2022/10/05 00:59:26;;;;;;;3.50;3.20;;;;;;;9.74;100.00;95329.00;5090968;28;20243;-62
2022/10/05 01:02:29;;;;;;;5.43;3.37;;;;;;;9.88;100.00;95347.44;5076087;28;20566;-62
2022/10/05 01:05:01;;;;;;;4.77;3.77;;;;;;;9.76;100.00;95348.28;5094762;28;20238;-62
2022/10/05 01:07:33;;;;;;;4.37;3.37;;;;;;;9.88;100.00;95357.59;5094547;28;20262;-62
2022/10/05 01:10:05;;;;;;;5.17;3.33;;;;;;;9.77;100.00;95349.09;5094439;28;20232;-61
2022/10/05 01:12:30;;;;;;;6.23;3.63;;;;;;;9.76;100.00;95352.56;5076610;28;20763;-60
2022/10/05 01:15:30;;;;;;;5.80;3.37;;;;;;;9.69;100.00;95357.28;5076325;28;20249;-60
2022/10/05 01:18:11;;;;;;;5.03;3.63;;;;;;;9.72;100.00;95364.66;5094496;28;20184;-61
2022/10/05 01:20:48;;;;;;;4.03;3.60;;;;;;;9.85;100.00;95372.22;5094332;28;20720;-62
2022/10/05 01:23:27;;;;;;;4.23;3.33;;;;;;;9.99;100.00;95385.59;5076105;28;20196;-61
2022/10/05 01:26:04;;;;;;;4.60;3.27;;;;;;;9.65;100.00;95366.03;5094199;28;20200;-61
2022/10/05 01:29:08;;;;;;;6.47;3.97;;;;;;;9.59;100.00;95363.09;5094193;28;20208;-61
2022/10/05 01:32:10;;;;;;;6.07;3.90;;;;;;;9.68;100.00;95378.47;5076302;28;20573;-60
2022/10/05 01:34:40;;;;;;;8.40;6.27;;;;;;;9.11;100.00;95365.53;5049274;28;20224;-60
2022/10/05 01:37:34;;;;;;;5.90;4.10;;;;;;;9.36;100.00;95379.88;5094032;28;20192;-59
2022/10/05 01:40:30;;;;;;;5.00;4.40;;;;;;;9.21;100.00;95374.13;5094178;28;20239;-59
2022/10/05 01:43:18;;;;;;;9.03;5.07;;;;;;;9.17;100.00;95379.53;5056274;28;20204;-59
2022/10/05 01:46:09;;;;;;;7.80;4.50;;;;;;;9.24;100.00;95393.41;5093724;28;20216;-60
2022/10/05 01:48:59;;;;;;;9.33;5.37;;;;;;;9.27;100.00;95385.59;5075660;28;20585;-60
2022/10/05 01:51:37;;;;;;;6.17;5.17;;;;;;;9.20;100.00;95392.00;5075778;28;20203;-60
2022/10/05 01:54:05;;;;;;;7.27;5.23;;;;;;;9.23;100.00;95401.94;5094155;28;20284;-62
2022/10/05 01:56:58;;;;;;;7.10;5.30;;;;;;;9.33;100.00;95405.50;5075749;28;20184;-60
2022/10/05 01:59:43;;;;;;;9.93;5.97;;;;;;;9.31;100.00;95407.31;5093991;28;20201;-59
2022/10/05 02:02:13;;;;;;;6.83;5.17;;;;;;;9.41;100.00;95407.50;5093797;28;20203;-59
2022/10/05 02:04:45;;;;;;;8.67;5.80;;;;;;;9.40;100.00;95411.75;5093902;28;20223;-60
2022/10/05 02:07:52;;;;;;;8.77;6.30;;;;;;;9.25;100.00;95413.59;5094000;28;20206;-62
2022/10/05 02:10:29;;;;;;;9.40;6.70;;;;;;;9.31;100.00;95408.09;5044154;28;20228;-64
2022/10/05 02:13:13;;;;;;;7.37;5.73;;;;;;;9.41;100.00;95410.84;5092962;28;20179;-63
2022/10/05 02:15:43;;;;;;;7.03;6.27;;;;;;;9.34;100.00;95409.63;5075275;28;20302;-62
2022/10/05 02:18:15;;;;;;;9.47;5.63;;;;;;;9.41;100.00;95418.47;5093568;28;20271;-62
2022/10/05 02:20:42;;;;;;;7.10;5.50;;;;;;;9.53;100.00;95420.16;5093462;28;20207;-61
2022/10/05 02:23:13;;;;;;;7.10;5.93;;;;;;;9.51;100.00;95419.47;5093325;28;20195;-60
2022/10/05 02:25:41;;;;;;;9.40;5.90;;;;;;;9.51;100.00;95418.66;5093390;28;20294;-59
2022/10/05 02:28:12;;;;;;;7.93;5.97;;;;;;;9.32;100.00;95414.81;5093057;28;20211;-59
2022/10/05 02:30:47;;;;;;;8.60;5.73;;;;;;;9.28;100.00;95415.94;5093198;28;20287;-61
2022/10/05 02:33:26;;;;;;;11.83;5.70;;;;;;;8.99;100.00;95416.25;5075095;28;20253;-61
2022/10/05 02:35:52;;;;;;;7.50;5.83;;;;;;;8.99;100.00;95418.78;5093364;28;20188;-60
2022/10/05 02:38:41;;;;;;;9.47;6.10;;;;;;;8.99;100.00;95422.13;5093178;28;20184;-60
2022/10/05 02:41:36;;;;;;;8.63;6.57;;;;;;;9.10;100.00;95421.44;5074945;28;20210;-58
2022/10/05 02:44:29;;;;;;;8.10;5.83;;;;;;;9.17;100.00;95415.03;5093348;28;20245;-59
2022/10/05 02:47:12;;;;;;;7.33;5.60;;;;;;;9.05;100.00;95419.19;5074796;28;20594;-59
2022/10/05 02:49:53;;;;;;;8.07;5.23;;;;;;;9.35;100.00;95413.00;5092927;28;20216;-59
2022/10/05 02:52:28;;;;;;;9.67;5.73;;;;;;;9.24;100.00;95419.59;5093030;28;20188;-62
2022/10/05 02:55:32;;;;;;;8.27;5.77;;;;;;;9.25;100.00;95417.88;5092958;28;20211;-59
2022/10/05 02:58:12;;;;;;;7.73;6.00;;;;;;;9.07;100.00;95419.09;5048001;28;20226;-63
2022/10/05 03:01:01;;;;;;;11.47;6.43;;;;;;;9.12;100.00;95412.81;5092898;28;20232;-60
2022/10/05 03:03:36;;;;;;;6.53;5.67;;;;;;;9.04;100.00;95415.03;5092717;28;20189;-62
2022/10/05 03:06:09;;;;;;;8.30;5.57;;;;;;;9.08;100.00;95415.66;5074590;28;20191;-61
2022/10/05 03:08:44;;;;;;;6.97;6.27;;;;;;;9.06;100.00;95423.38;5074499;28;20678;-62
2022/10/05 03:11:34;;;;;;;10.13;6.10;;;;;;;9.10;100.00;95429.03;5092545;28;20188;-60
2022/10/05 03:14:17;;;;;;;6.87;5.20;;;;;;;9.22;100.00;95426.50;5092835;28;20242;-63
2022/10/05 03:17:18;;;;;;;7.07;5.57;;;;;;;9.16;100.00;95431.16;5074461;28;20203;-59
2022/10/05 03:19:55;;;;;;;7.93;5.60;;;;;;;9.14;100.00;95430.47;5092756;28;20218;-59
2022/10/05 03:22:48;;;;;;;7.07;6.23;;;;;;;9.26;100.00;95437.25;5092503;28;20192;-60
2022/10/05 03:25:22;;;;;;;7.33;5.70;;;;;;;9.39;100.00;95443.13;5073110;28;20247;-61
2022/10/05 03:28:00;;;;;;;8.60;5.93;;;;;;;9.39;100.00;95443.13;5092348;28;20696;-62
2022/10/05 03:30:32;;;;;;;8.20;5.60;;;;;;;9.30;100.00;95431.06;5092058;28;20211;-62
2022/10/05 03:33:31;;;;;;;6.07;5.47;;;;;;;9.06;100.00;95437.75;5092127;28;20192;-60
2022/10/05 03:36:03;;;;;;;8.30;6.43;;;;;;;8.98;100.00;95453.50;5092208;28;20654;-59
2022/10/05 03:38:43;;;;;;;9.10;6.57;;;;;;;9.02;100.00;95454.91;5092020;28;20203;-61
2022/10/05 03:41:56;;;;;;;16.53;7.20;;;;;;;8.94;100.00;95456.31;5074041;28;20184;-62
2022/10/05 03:44:46;;;;;;;9.30;7.13;;;;;;;8.99;100.00;95459.34;4990411;28;20314;-61
2022/10/05 03:47:24;;;;;;;8.20;6.37;;;;;;;8.95;100.00;95457.94;4974179;28;20274;-62
2022/10/05 03:50:01;;;;;;;13.80;6.83;;;;;;;8.92;100.00;95470.81;5068799;28;20709;-61
2022/10/05 03:52:34;;;;;;;8.90;7.40;;;;;;;8.89;100.00;95469.28;5092262;28;20207;-61
2022/10/05 03:55:14;;;;;;;10.87;7.37;;;;;;;8.94;100.00;95467.28;5092149;28;20211;-59
2022/10/05 03:57:42;;;;;;;9.03;7.50;;;;;;;9.01;100.00;95481.16;5073840;28;20195;-61
2022/10/05 04:00:15;;;;;;;11.00;7.87;;;;;;;8.92;100.00;95486.03;5092185;28;20294;-65
2022/10/05 04:02:49;;;;;;;12.53;8.17;;;;;;;8.85;100.00;95488.16;5092048;28;20668;-60
2022/10/05 04:05:20;;;;;;;13.90;8.00;;;;;;;8.83;100.00;95496.75;5073851;28;20698;-62
2022/10/05 04:07:59;;;;;;;10.37;7.23;;;;;;;8.74;100.00;95499.91;5091564;28;20618;-60
2022/10/05 04:10:27;;;;;;;9.67;7.23;;;;;;;9.06;100.00;95501.97;5091560;28;20215;-60
2022/10/05 04:13:03;;;;;;;10.27;7.53;;;;;;;8.85;100.00;95498.28;5073636;28;20184;-60
2022/10/05 04:16:08;;;;;;;9.97;7.33;;;;;;;9.02;100.00;95510.72;5074105;28;20228;-63
2022/10/05 04:18:44;;;;;;;11.80;8.30;;;;;;;8.71;100.00;95493.28;5068671;28;20223;-64
2022/10/05 04:21:22;;;;;;;11.13;8.03;;;;;;;8.77;100.00;95497.16;5091741;28;20168;-63
2022/10/05 04:24:36;;;;;;;10.90;7.17;;;;;;;8.62;100.00;95500.69;5073650;28;20760;-60
2022/10/05 04:27:07;;;;;;;13.97;7.37;;;;;;;8.28;100.00;95509.59;4990225;28;20192;-60
2022/10/05 04:29:39;;;;;;;8.23;7.33;;;;;;;8.39;100.00;95517.31;4989987;28;20769;-62
2022/10/05 04:32:15;;;;;;;8.33;6.87;;;;;;;8.48;100.00;95508.34;5052013;28;20261;-61
2022/10/05 04:34:46;;;;;;;14.33;6.90;;;;;;;8.22;100.00;95513.25;5091833;28;20249;-63
2022/10/05 04:37:21;;;;;;;10.40;7.57;;;;;;;8.21;100.00;95514.19;5070834;28;20180;-62
2022/10/05 04:40:07;;;;;;;11.20;7.60;;;;;;;8.27;100.00;95511.31;5088891;28;20226;-60
2022/10/05 04:42:43;;;;;;;12.23;7.43;;;;;;;8.48;100.00;95508.34;5089717;28;20188;-62
2022/10/05 04:45:42;;;;;;;8.70;7.07;;;;;;;8.55;100.00;95517.16;5072998;28;20287;-62
2022/10/05 04:48:34;;;;;;;9.50;6.60;;;;;;;8.72;100.00;95522.00;5091155;28;20200;-63
2022/10/05 04:51:37;;;;;;;10.67;6.80;;;;;;;8.72;100.00;95534.66;5091116;28;20325;-58
2022/10/05 04:54:12;;;;;;;10.50;6.80;;;;;;;8.62;100.00;95528.56;5091651;28;20242;-62
2022/10/05 04:56:47;;;;;;;9.57;6.53;;;;;;;8.57;100.00;95530.53;5091230;28;20192;-60
2022/10/05 04:59:25;;;;;;;14.73;9.83;;;;;;;8.59;100.00;95542.22;5091290;28;20215;-59
2022/10/05 05:02:06;;;;;;;14.83;9.00;;;;;;;8.69;100.00;95533.13;5091238;28;20187;-63
2022/10/05 05:05:02;;;;;;;21.53;13.10;;;;;;;8.74;100.00;95540.44;5090667;28;20219;-60
2022/10/05 05:08:02;;;;;;;21.27;11.90;;;;;;;8.82;100.00;95544.13;5088643;28;20196;-59
2022/10/05 05:10:40;;;;;;;18.50;9.70;;;;;;;8.82;100.00;95543.31;5056352;28;20318;-60
2022/10/05 05:13:15;;;;;;;17.43;9.27;;;;;;;8.91;100.00;95535.94;5090980;28;20196;-62
2022/10/05 05:16:05;;;;;;;16.80;10.27;;;;;;;9.01;100.00;95543.75;5072964;28;20218;-62
2022/10/05 05:19:04;;;;;;;16.17;10.90;;;;;;;9.00;100.00;95545.50;5089298;28;20188;-62
2022/10/05 05:21:53;;;;;;;13.07;8.17;;;;;;;8.95;100.00;95542.44;5089419;28;20713;-61
2022/10/05 05:24:22;;;;;;;12.47;7.97;;;;;;;8.92;100.00;95545.16;5090996;28;20243;-60
2022/10/05 05:27:29;;;;;;;12.17;7.80;;;;;;;8.88;100.00;95542.91;5090531;28;20192;-59
2022/10/05 05:30:20;;;;;;;9.80;6.47;;;;;;;9.11;100.00;95560.03;5089735;28;20593;-60
2022/10/05 05:33:18;;;;;;;16.67;6.33;;;;;;;9.39;100.00;95577.63;5087961;28;20253;-60
2022/10/05 05:36:05;;;;;;;9.43;6.20;;;;;;;9.36;100.00;95572.72;5088304;28;20218;-60
2022/10/05 05:38:43;;;;;;;8.97;6.13;;;;;;;9.25;100.00;95565.81;5090930;28;20686;-60
2022/10/05 05:41:35;;;;;;;6.87;5.80;;;;;;;9.24;100.00;95559.13;5090766;28;20261;-61
2022/10/05 05:44:07;;;;;;;12.47;6.20;;;;;;;9.39;100.00;95587.78;5090223;28;20228;-59
2022/10/05 05:46:37;;;;;;;10.20;6.23;;;;;;;9.14;100.00;95559.81;5090558;28;20687;-60
2022/10/05 05:49:21;;;;;;;8.53;6.27;;;;;;;9.36;100.00;95584.59;5093724;28;20251;-59
2022/10/05 05:51:57;;;;;;;10.87;6.00;;;;;;;9.36;100.00;95567.66;5094264;28;20272;-62
2022/10/05 05:54:39;;;;;;;9.67;6.03;;;;;;;9.40;100.00;95571.63;5094110;28;20203;-60
2022/10/05 05:57:12;;;;;;;9.63;6.43;;;;;;;9.32;100.00;95561.97;5093983;28;20653;-62
2022/10/05 05:59:53;;;;;;;7.30;5.47;;;;;;;9.65;100.00;95584.34;5094291;28;20220;-63
2022/10/05 06:02:25;;;;;;;10.23;6.43;;;;;;;9.80;100.00;95593.47;5093916;28;20577;-62
2022/10/05 06:05:13;;;;;;;7.10;6.03;;;;;;;9.80;100.00;95597.72;5075139;28;20272;-62
2022/10/05 06:07:39;;;;;;;7.67;5.30;;;;;;;9.71;100.00;95594.09;5093527;28;20219;-63
2022/10/05 06:10:16;;;;;;;11.07;6.33;;;;;;;9.87;100.00;95611.66;5073090;28;20541;-62
2022/10/05 06:12:52;;;;;;;8.27;6.20;;;;;;;9.93;100.00;95619.69;5091956;28;20203;-60
2022/10/05 06:15:36;;;;;;;12.00;6.93;;;;;;;10.00;100.00;95620.88;5093372;28;20290;-62
2022/10/05 06:18:09;;;;;;;13.77;6.70;;;;;;;9.94;100.00;95597.59;5075282;28;20184;-62
2022/10/05 06:20:40;;;;;;;14.80;7.77;;;;;;;10.13;100.00;95629.34;5093489;28;20677;-62
2022/10/05 06:23:19;;;;;;;11.67;6.70;;;;;;;10.00;100.00;95615.81;5075287;28;20654;-59
2022/10/05 06:26:12;;;;;;;20.27;11.87;;;;;;;10.18;100.00;95631.56;5075176;28;20701;-59
2022/10/05 06:28:38;;;;;;;11.87;8.20;;;;;;;10.03;100.00;95608.00;5093579;28;20208;-60
2022/10/05 06:31:21;;;;;;;14.93;8.23;;;;;;;10.17;100.00;95613.88;5093344;28;20195;-63
2022/10/05 06:33:52;;;;;;;12.23;8.43;;;;;;;10.17;100.00;95611.34;5093327;28;20211;-61
2022/10/05 06:36:44;;;;;;;14.37;7.80;;;;;;;10.35;100.00;95626.16;5093358;28;20196;-61
2022/10/05 06:39:21;;;;;;;13.23;8.83;;;;;;;10.45;100.00;95631.41;5092191;28;20212;-60
2022/10/05 06:42:16;;;;;;;13.67;8.53;;;;;;;10.65;100.00;95641.03;5072750;28;20188;-59
2022/10/05 06:44:44;;;;;;;16.73;8.13;;;;;;;10.73;100.00;95661.66;5052652;28;20231;-59
2022/10/05 06:47:22;;;;;;;10.87;8.03;;;;;;;10.96;100.00;95691.41;5092076;28;20263;-59
2022/10/05 06:50:03;;;;;;;16.57;8.90;;;;;;;11.15;100.00;95707.00;5075625;28;20228;-60
2022/10/05 06:52:41;;;;;;;16.73;8.93;;;;;;;11.26;100.00;95707.09;5074864;28;20579;-59
2022/10/05 06:55:28;;;;;;;13.37;8.87;;;;;;;11.21;100.00;95719.31;5092765;28;20268;-61
2022/10/05 06:58:22;;;;;;;18.77;9.30;;;;;;;11.36;100.00;95732.69;5093013;28;20188;-62
2022/10/05 07:01:04;;;;;;;10.87;8.10;;;;;;;11.56;100.00;95740.56;5074724;28;20206;-59
2022/10/05 07:03:48;;;;;;;12.07;9.83;;;;;;;11.47;100.00;95731.00;5074770;28;20204;-60
2022/10/05 07:06:18;;;;;;;15.83;9.93;;;;;;;11.66;100.00;95736.47;5092861;28;20196;-62
2022/10/05 07:08:52;;;;;;;16.70;9.37;;;;;;;11.81;100.00;95752.38;5092219;28;20312;-62
2022/10/05 07:11:42;;;;;;;15.33;9.03;;;;;;;11.80;100.00;95741.38;5090553;28;20183;-62
2022/10/05 07:14:17;;;;;;;16.90;9.97;;;;;;;11.90;100.00;95766.22;5090655;28;20204;-62
2022/10/05 07:17:09;;;;;;;15.53;9.47;;;;;;;11.99;100.00;95755.34;5074205;28;20194;-59
2022/10/05 07:20:06;;;;;;;21.70;9.07;;;;;;;12.11;100.00;95772.28;5060251;28;20781;-62
2022/10/05 07:22:45;;;;;;;15.53;9.70;;;;;;;12.24;100.00;95755.19;5092489;28;20188;-61
2022/10/05 07:25:22;;;;;;;14.47;9.77;;;;;;;12.45;99.63;95777.34;5092421;28;20273;-60
2022/10/05 07:27:50;;;;;;;13.63;9.77;;;;;;;12.34;100.00;95761.22;5092451;28;20180;-60
2022/10/05 07:30:16;;;;;;;14.77;9.07;;;;;;;12.69;99.12;95764.50;5092746;28;20220;-59
2022/10/05 07:33:00;;;;;;;13.27;8.70;;;;;;;12.99;97.30;95785.16;5092484;28;20199;-59
2022/10/05 07:38:52;;;;;;;18.30;9.20;;;;;;;13.25;95.44;95801.09;5092242;28;20262;-59
2022/10/05 07:41:21;;;;;;;14.80;9.40;;;;;;;13.11;97.13;95763.81;5092223;28;20188;-60
2022/10/05 07:44:21;;;;;;;11.87;8.93;;;;;;;12.98;95.15;95795.47;5091271;28;20299;-60
2022/10/05 07:47:12;;;;;;;13.40;9.00;;;;;;;13.01;95.11;95785.06;5084704;28;20185;-59
2022/10/05 07:49:52;;;;;;;14.63;9.63;;;;;;;13.08;95.42;95781.94;5089571;28;20219;-63
2022/10/05 07:52:40;;;;;;;15.17;8.63;;;;;;;13.30;93.71;95809.19;5092237;28;20250;-59
2022/10/05 07:55:24;;;;;;;14.50;8.17;;;;;;;13.49;92.50;95819.63;5092159;28;20731;-60
2022/10/05 07:58:08;;;;;;;11.18;9.10;;;;;;;13.59;90.67;95842.72;5092020;28;20184;-60
2022/10/05 08:01:02;;;;;;;12.20;8.93;;;;;;;13.92;90.33;95837.50;5092014;28;20220;-60
2022/10/05 08:03:51;;;;;;;17.20;8.67;;;;;;;14.42;89.53;95854.81;5082542;28;20208;-60
2022/10/05 08:06:42;;;;;;;9.23;8.30;;;;;;;14.05;89.80;95845.84;5091912;28;20216;-59
2022/10/05 08:09:30;;;;;;;12.30;8.93;;;;;;;14.71;87.11;95895.94;5073392;28;20216;-60
2022/10/05 08:12:01;;;;;;;13.55;8.55;;;;;;;14.89;87.70;95874.78;5072333;28;20184;-60
2022/10/05 08:14:30;;;;;;;14.97;8.60;;;;;;;15.18;85.60;95895.44;5089455;28;20220;-60
2022/10/05 08:16:58;;;;;;;22.33;7.87;;;;;;;14.71;87.02;95858.34;5089692;28;20180;-59
2022/10/05 08:19:42;;;;;;;14.10;8.40;;;;;;;15.05;83.36;95939.16;5090548;28;20685;-62
2022/10/05 08:22:12;;;;;;;11.85;7.78;;;;;;;15.48;81.43;95953.59;5073356;28;20188;-60
2022/10/05 08:24:51;;;;;;;11.60;7.85;;;;;;;15.89;79.57;95981.72;5091402;28;20245;-59
2022/10/05 08:27:22;;;;;;;9.90;7.80;;;;;;;15.78;79.72;95958.72;5091768;28;20180;-60
2022/10/05 08:29:50;;;;;;;14.55;8.25;;;;;;;15.98;76.66;96010.91;5091379;28;20236;-59
2022/10/05 08:32:33;;;;;;;11.82;8.00;;;;;;;16.47;75.51;96011.72;5091419;28;20184;-60
2022/10/05 08:35:12;;;;;;;8.77;6.45;;;;;;;16.77;74.53;96009.09;5092002;28;20274;-60
2022/10/05 08:37:41;;;;;;;9.18;6.22;;;;;;;17.08;72.72;96039.81;5091239;28;20186;-60
2022/10/05 08:40:10;;;;;;;9.43;6.90;;;;;;;17.14;70.67;96058.06;5091143;28;20271;-59
2022/10/05 08:42:44;;;;;;;7.50;5.55;;;;;;;17.47;69.91;96043.97;5091299;28;20180;-60
2022/10/05 08:45:18;;;;;;;8.43;5.43;;;;;;;17.18;68.86;96050.88;5091390;28;20202;-59
2022/10/05 08:48:21;;;;;;;8.82;6.28;;;;;;;17.47;67.30;96072.28;5091248;28;20185;-60
2022/10/05 08:51:25;;;;;;;7.85;5.03;;;;;;;17.69;68.50;96038.56;5089649;28;20234;-59
2022/10/05 08:53:56;;;;;;;11.02;7.95;;;;;;;17.95;63.19;96149.41;5043578;28;20227;-62
2022/10/05 08:56:48;;;;;;;10.50;5.10;;;;;;;18.13;64.96;96068.75;5089413;28;20211;-59
2022/10/05 08:59:13;;;;;;;9.50;5.35;;;;;;;18.27;65.00;96063.16;5044076;28;20634;-60
2022/10/05 09:02:13;;;;;;;5.18;4.00;;;;;;;18.43;62.49;96122.59;5090977;28;20271;-63
2022/10/05 09:04:41;;;;;;;6.38;4.40;;;;;;;18.57;60.41;96161.72;5091239;28;20225;-61
2022/10/05 09:07:22;;;;;;;5.63;3.58;;;;;;;18.99;58.19;96204.13;5090956;28;20275;-61
2022/10/05 09:10:06;;;;;;;6.13;4.30;;;;;;;19.29;59.65;96153.06;5072773;28;20254;-60
2022/10/05 09:12:57;;;;;;;5.47;3.50;;;;;;;19.66;59.02;96155.53;5091079;28;20184;-61
2022/10/05 09:15:41;;;;;;;6.47;3.35;;;;;;;19.57;57.06;96194.31;5091021;28;20207;-62
2022/10/05 09:18:24;;;;;;;3.83;2.90;;;;;;;20.00;56.77;96189.19;5090745;28;20183;-60
2022/10/05 09:20:53;;;;;;;5.90;2.17;;;;;;;19.84;52.33;96293.16;5089411;28;20188;-59
2022/10/05 09:23:30;;;;;;;2.92;2.40;;;;;;;18.73;53.92;96228.91;5090590;28;20172;-60
2022/10/05 09:26:05;;;;;;;4.22;2.55;;;;;;;19.55;54.27;96212.53;5093280;28;20199;-62
2022/10/05 09:28:33;;;;;;;4.63;2.30;;;;;;;19.88;53.97;96227.34;5094559;28;20203;-61
2022/10/05 09:31:37;;;;;;;4.72;2.20;;;;;;;19.88;50.77;96304.81;5076043;28;20220;-61
2022/10/05 09:34:47;;;;;;;6.28;2.03;;;;;;;20.30;50.06;96312.81;5094474;28;20279;-63
2022/10/05 09:37:26;;;;;;;3.30;1.83;;;;;;;20.88;49.19;96326.03;5094086;28;20189;-62
2022/10/05 09:40:10;;;;;;;3.78;1.77;;;;;;;21.15;49.72;96299.22;5094170;28;20287;-59
2022/10/05 09:42:56;;;;;;;5.63;2.53;;;;;;;20.85;50.03;96272.84;5094229;28;20180;-59
2022/10/05 09:45:28;;;;;;;3.40;2.30;;;;;;;20.68;48.60;96314.25;5094659;28;20219;-61
2022/10/05 09:48:12;;;;;;;14.98;8.38;;;;;;;21.26;47.56;96338.56;5092710;28;20657;-61
2022/10/05 09:50:56;;;;;;;8.02;4.15;;;;;;;21.77;45.72;96387.66;5091562;28;20294;-59
2022/10/05 09:53:21;;;;;;;5.50;1.98;;;;;;;21.63;44.61;96421.09;5092128;28;20180;-61
2022/10/05 09:56:24;;;;;;;4.30;1.40;;;;;;;21.60;44.40;96395.50;5101559;22;20220;-61
2022/10/05 09:59:41;;;;;;;2.42;1.50;;;;;;;21.84;43.84;96405.19;5094085;28;20243;-63
2022/10/05 10:02:14;;;;;;;4.05;2.15;;;;;;;21.90;43.66;96402.78;5094002;28;20188;-60
2022/10/05 10:05:04;;;;;;;2.05;1.33;;;;;;;21.60;44.12;96365.25;5094451;28;20730;-63
2022/10/05 10:07:56;;;;;;;2.67;1.98;;;;;;;22.31;43.50;96390.78;5093699;28;20218;-62
2022/10/05 10:10:58;;;;;;;1.60;1.30;;;;;;;21.88;43.33;96368.47;5094024;28;20326;-61
2022/10/05 10:13:45;;;;;;;3.85;1.60;;;;;;;21.78;44.77;96315.97;5093644;28;20786;-60
2022/10/05 10:16:25;;;;;;;1.85;1.65;;;;;;;21.15;43.85;96338.81;5093369;28;20252;-60
2022/10/05 10:19:19;;;;;;;2.55;1.60;;;;;;;20.74;46.30;96246.44;5093141;28;20204;-60
2022/10/05 10:22:08;;;;;;;2.60;1.20;;;;;;;21.19;44.45;96316.84;5091166;28;20188;-61
2022/10/05 10:25:01;;;;;;;3.25;1.20;;;;;;;21.76;43.21;96364.50;5090955;28;20693;-61
2022/10/05 10:27:57;;;;;;;2.22;1.25;;;;;;;21.27;43.58;96347.94;5075216;28;20202;-60
2022/10/05 10:31:10;;;;;;;2.42;1.10;;;;;;;21.49;41.77;96404.34;5093549;28;20227;-62
2022/10/05 10:33:54;;;;;;;2.03;1.70;;;;;;;21.77;44.26;96305.75;5047452;28;20302;-62
2022/10/05 10:36:32;;;;;;;1.27;1.00;;;;;;;21.67;43.62;96309.28;5093342;28;20192;-63
2022/10/05 10:39:14;;;;;;;2.40;1.35;;;;;;;21.98;43.38;96316.53;5093133;28;20204;-60
2022/10/05 10:42:15;;;;;;;1.33;1.05;;;;;;;22.33;44.34;96279.97;5093375;28;20559;-60
2022/10/05 10:44:58;;;;;;;2.58;1.23;;;;;;;22.50;42.76;96325.66;5089163;28;20220;-61
2022/10/05 10:47:34;;;;;;;1.55;1.30;;;;;;;21.99;42.87;96315.56;5074751;28;20184;-60
2022/10/05 10:50:25;;;;;;;2.55;1.50;;;;;;;21.65;42.04;96352.66;5092345;28;20311;-60
2022/10/05 10:53:22;;;;;;;2.88;1.30;;;;;;;21.99;44.41;96240.44;5090801;28;20203;-60
2022/10/05 10:56:07;;;;;;;2.47;1.40;;;;;;;22.30;42.52;96322.56;5053536;28;20196;-60
2022/10/05 10:58:51;;;;;;;1.23;1.13;;;;;;;22.22;39.97;96347.69;5093123;28;20184;-60
2022/10/05 11:01:32;;;;;;;2.13;1.58;;;;;;;21.85;40.91;96260.00;5093446;28;20190;-62
2022/10/05 11:04:19;;;;;;;1.20;1.10;;;;;;;22.19;40.02;96247.75;5075084;28;20211;-61
2022/10/05 11:07:12;;;;;;;1.27;1.05;;;;;;;22.35;39.12;96231.38;5092886;28;20192;-62
2022/10/05 11:09:52;;;;;;;4.03;1.35;;;;;;;22.31;40.61;96157.50;5092776;28;20216;-60
2022/10/05 11:12:20;;;;;;;1.30;1.10;;;;;;;22.57;41.31;96129.56;5092484;28;20211;-62
2022/10/05 11:15:08;;;;;;;2.28;1.23;;;;;;;22.68;40.51;96154.38;5090785;28;20219;-63
2022/10/05 11:18:07;;;;;;;1.65;1.25;;;;;;;22.40;40.46;96143.56;5091313;28;20199;-60
2022/10/05 11:20:58;;;;;;;2.20;1.10;;;;;;;22.82;38.51;96196.00;5092542;28;20306;-63
2022/10/05 11:24:01;;;;;;;2.22;1.15;;;;;;;22.52;38.85;96165.56;5092766;28;20571;-61
2022/10/05 11:26:41;;;;;;;1.75;1.02;;;;;;;23.11;37.27;96216.94;5092675;28;20250;-60
2022/10/05 11:29:19;;;;;;;1.63;0.70;;;;;;;23.63;35.08;96263.16;5092390;28;20216;-62
2022/10/05 11:32:20;;;;;;;2.40;0.95;;;;;;;23.32;33.47;96235.41;5092637;28;20186;-60
2022/10/05 11:35:16;;;;;;;6.47;1.60;;;;;;;23.66;35.35;96143.31;5069274;28;20223;-61
2022/10/05 11:37:57;;;;;;;1.55;1.20;;;;;;;22.96;34.62;96155.56;5092313;28;20168;-63
2022/10/05 11:40:56;;;;;;;1.48;1.08;;;;;;;22.95;34.21;96140.94;5090467;28;20211;-62
2022/10/05 11:44:14;;;;;;;1.83;1.05;;;;;;;23.56;34.68;96109.78;5092501;28;20198;-60
2022/10/05 11:47:04;;;;;;;3.30;1.20;;;;;;;23.86;36.42;96063.91;5003800;28;20196;-62
2022/10/05 11:49:42;;;;;;;1.63;1.23;;;;;;;23.90;36.88;96047.00;5074088;28;20244;-62
2022/10/05 11:52:39;;;;;;;1.33;1.10;;;;;;;23.39;34.02;96115.28;5092075;28;20188;-60
2022/10/05 11:55:27;;;;;;;2.20;0.93;;;;;;;23.59;35.32;96075.72;5092168;28;20569;-62
2022/10/05 11:58:03;;;;;;;3.67;1.08;;;;;;;23.88;35.91;96046.34;5091990;28;20184;-62
2022/10/05 12:00:49;;;;;;;1.73;1.05;;;;;;;24.08;34.76;96073.47;5092109;28;20707;-63
2022/10/05 12:03:32;;;;;;;1.02;0.80;;;;;;;24.23;34.29;96076.91;5092100;28;20184;-63
2022/10/05 12:06:33;;;;;;;5.00;1.48;;;;;;;23.50;33.71;96091.50;5091819;28;20191;-62
2022/10/05 12:09:17;;;;;;;1.23;1.00;;;;;;;23.60;33.33;96089.47;5071833;28;20208;-62
2022/10/05 12:12:15;;;;;;;1.58;0.98;;;;;;;23.66;34.67;96052.41;5090697;28;20241;-62
2022/10/05 12:14:54;;;;;;;2.25;0.82;;;;;;;23.81;33.85;96063.66;5087761;28;20601;-63
2022/10/05 12:17:32;;;;;;;1.77;1.05;;;;;;;23.92;33.89;96058.00;5091923;28;20176;-62
2022/10/05 12:20:19;;;;;;;1.95;0.52;;;;;;;24.13;34.07;96053.78;5073327;28;20646;-60
2022/10/05 12:23:16;;;;;;;1.10;1.00;;;;;;;24.47;34.19;96053.22;5091647;28;20723;-62
2022/10/05 12:25:47;;;;;;;2.35;1.20;;;;;;;24.69;33.85;96061.88;5091760;28;20603;-61
2022/10/05 12:28:24;;;;;;;1.92;1.00;;;;;;;24.63;33.18;96076.44;5091620;28;20187;-61
2022/10/05 12:31:02;;;;;;;1.92;0.85;;;;;;;24.49;33.52;96063.44;5091266;28;20195;-63
2022/10/05 12:33:53;;;;;;;1.63;0.90;;;;;;;24.70;33.23;96068.72;5089646;28;20183;-62
2022/10/05 12:36:26;;;;;;;1.15;0.93;;;;;;;24.75;33.23;96056.81;5089331;28;20203;-59
2022/10/05 12:38:51;;;;;;;1.48;0.82;;;;;;;24.95;34.29;96026.59;5091393;28;20295;-60
2022/10/05 12:41:27;;;;;;;3.63;1.10;;;;;;;24.58;32.66;96057.97;5091615;28;20314;-62